createdAt,value
2019-02-06T00:01:05.488Z,99.90
2019-02-06T00:03:34.421Z,99.90
2019-02-06T00:06:03.387Z,99.90
2019-02-06T00:08:32.414Z,99.90
2019-02-06T00:11:01.274Z,99.90
2019-02-06T00:13:30.505Z,99.90
2019-02-06T00:15:59.392Z,99.90
2019-02-06T00:18:28.309Z,99.90
2019-02-06T00:20:57.204Z,99.90
2019-02-06T00:23:26.049Z,99.90
2019-02-06T00:25:54.895Z,99.90
2019-02-06T00:28:23.677Z,99.90
2019-02-06T00:30:52.954Z,99.90
2019-02-06T00:33:21.828Z,99.90
2019-02-06T00:35:50.729Z,99.90
2019-02-06T00:38:19.530Z,99.90
2019-02-06T00:40:48.450Z,99.90
2019-02-06T00:43:17.243Z,99.90
2019-02-06T00:45:46.385Z,99.90
2019-02-06T00:48:15.293Z,99.90
2019-02-06T00:50:44.004Z,99.90
2019-02-06T00:53:12.763Z,99.90
2019-02-06T00:55:41.626Z,99.90
2019-02-06T00:58:10.479Z,99.90
2019-02-06T01:00:39.729Z,99.90
2019-02-06T01:03:08.794Z,99.90
2019-02-06T01:05:38.848Z,99.90
2019-02-06T01:08:07.990Z,99.90
2019-02-06T01:10:36.905Z,99.90
2019-02-06T01:13:05.829Z,99.90
2019-02-06T01:15:34.660Z,99.90
2019-02-06T01:18:03.793Z,99.90
2019-02-06T01:20:32.530Z,99.90
2019-02-06T01:23:01.310Z,99.90
2019-02-06T01:25:30.201Z,99.90
2019-02-06T01:27:59.000Z,99.90
2019-02-06T01:30:29.423Z,99.90
2019-02-06T01:32:58.890Z,99.90
2019-02-06T01:35:27.645Z,99.90
2019-02-06T01:37:56.383Z,99.90
2019-02-06T01:40:25.260Z,99.90
2019-02-06T01:42:54.051Z,99.90
2019-02-06T01:45:23.037Z,99.90
2019-02-06T01:47:51.921Z,99.90
2019-02-06T01:50:20.804Z,99.90
2019-02-06T01:52:49.523Z,99.90
2019-02-06T01:55:18.368Z,99.90
2019-02-06T01:57:47.172Z,99.90
2019-02-06T02:00:24.305Z,99.90
2019-02-06T02:02:53.571Z,99.90
2019-02-06T02:05:23.509Z,99.90
2019-02-06T02:07:52.501Z,99.90
2019-02-06T02:10:21.755Z,99.90
2019-02-06T02:12:50.918Z,99.90
2019-02-06T02:15:20.623Z,99.90
2019-02-06T02:17:49.563Z,99.90
2019-02-06T02:20:20.342Z,99.90
2019-02-06T02:22:49.179Z,99.90
2019-02-06T02:25:18.377Z,99.90
2019-02-06T02:27:47.215Z,99.90
2019-02-06T02:30:26.123Z,99.90
2019-02-06T02:32:54.926Z,99.90
2019-02-06T02:35:23.784Z,99.90
2019-02-06T02:37:52.659Z,99.90
2019-02-06T02:40:21.567Z,99.90
2019-02-06T02:42:50.382Z,99.90
2019-02-06T02:45:19.735Z,99.90
2019-02-06T02:47:48.880Z,99.90
2019-02-06T02:50:17.682Z,99.90
2019-02-06T02:52:46.569Z,99.90
2019-02-06T02:55:15.591Z,99.90
2019-02-06T02:57:44.409Z,99.90
2019-02-06T03:00:20.675Z,99.90
2019-02-06T03:03:07.419Z,99.90
2019-02-06T03:05:36.721Z,99.90
2019-02-06T03:08:05.860Z,99.90
2019-02-06T03:10:34.658Z,99.90
2019-02-06T03:13:03.747Z,99.90
2019-02-06T03:15:32.480Z,99.90
2019-02-06T03:18:01.256Z,99.90
2019-02-06T03:20:29.937Z,99.90
2019-02-06T03:22:58.732Z,99.90
2019-02-06T03:25:27.565Z,99.90
2019-02-06T03:27:56.393Z,99.90
2019-02-06T03:30:25.271Z,99.90
2019-02-06T03:32:53.969Z,99.90
2019-02-06T03:35:22.838Z,99.90
2019-02-06T03:37:51.645Z,99.90
2019-02-06T03:40:20.426Z,99.90
2019-02-06T03:42:49.238Z,99.90
2019-02-06T03:45:18.477Z,99.90
2019-02-06T03:47:47.143Z,99.90
2019-02-06T03:50:20.170Z,99.90
2019-02-06T03:52:48.998Z,99.90
2019-02-06T03:55:17.913Z,99.90
2019-02-06T03:57:47.045Z,99.90
2019-02-06T04:00:22.274Z,99.90
2019-02-06T04:02:51.201Z,99.90
2019-02-06T04:05:20.067Z,99.90
2019-02-06T04:07:48.898Z,99.90
2019-02-06T04:10:19.041Z,99.90
2019-02-06T04:12:47.993Z,99.90
2019-02-06T04:15:17.472Z,99.90
2019-02-06T04:17:46.371Z,99.90
2019-02-06T04:20:18.671Z,99.90
2019-02-06T04:22:47.409Z,99.90
2019-02-06T04:25:16.501Z,99.90
2019-02-06T04:27:45.342Z,99.90
2019-02-06T04:30:18.467Z,99.90
2019-02-06T04:32:47.369Z,99.90
2019-02-06T04:35:17.108Z,99.90
2019-02-06T04:37:45.923Z,99.90
2019-02-06T04:40:17.690Z,99.90
2019-02-06T04:42:46.976Z,99.90
2019-02-06T04:45:18.027Z,99.90
2019-02-06T04:47:47.135Z,99.90
2019-02-06T04:50:19.822Z,99.90
2019-02-06T04:52:48.421Z,99.90
2019-02-06T04:55:18.397Z,99.90
2019-02-06T04:57:47.583Z,99.90
2019-02-06T05:00:26.923Z,99.90
2019-02-06T05:02:55.890Z,99.90
2019-02-06T05:05:24.679Z,99.90
2019-02-06T05:07:53.364Z,99.90
2019-02-06T05:10:22.159Z,99.90
2019-02-06T05:12:51.043Z,99.90
2019-02-06T05:15:19.964Z,99.90
2019-02-06T05:17:48.861Z,99.90
2019-02-06T05:20:32.580Z,99.90
2019-02-06T05:23:01.482Z,99.90
2019-02-06T05:25:30.153Z,99.90
2019-02-06T05:27:59.038Z,99.90
2019-02-06T05:30:28.018Z,99.90
2019-02-06T05:32:56.780Z,99.90
2019-02-06T05:35:25.610Z,99.90
2019-02-06T05:37:54.540Z,99.90
2019-02-06T05:40:23.773Z,99.90
2019-02-06T05:42:52.971Z,99.90
2019-02-06T05:45:21.888Z,99.90
2019-02-06T05:47:50.633Z,99.90
2019-02-06T05:50:19.717Z,99.90
2019-02-06T05:52:48.662Z,99.90
2019-02-06T05:55:18.272Z,99.90
2019-02-06T05:57:47.977Z,99.90
2019-02-06T06:00:23.520Z,99.90
2019-02-06T06:02:52.325Z,99.90
2019-02-06T06:05:21.187Z,99.90
2019-02-06T06:07:50.000Z,99.90
2019-02-06T06:10:19.576Z,99.90
2019-02-06T06:12:48.629Z,99.90
2019-02-06T06:15:19.540Z,99.90
2019-02-06T06:17:48.411Z,99.90
2019-02-06T06:20:19.928Z,99.90
2019-02-06T06:22:48.896Z,99.90
2019-02-06T06:25:19.968Z,99.90
2019-02-06T06:27:49.078Z,99.90
2019-02-06T06:30:20.091Z,99.90
2019-02-06T06:32:48.973Z,99.90
2019-02-06T06:35:17.915Z,99.90
2019-02-06T06:37:57.607Z,99.90
2019-02-06T06:40:22.156Z,99.90
2019-02-06T06:42:51.435Z,99.90
2019-02-06T06:45:22.965Z,99.90
2019-02-06T06:47:51.776Z,99.90
2019-02-06T06:50:23.118Z,99.90
2019-02-06T06:52:52.285Z,99.90
2019-02-06T06:55:21.293Z,99.90
2019-02-06T06:57:50.187Z,99.90
2019-02-06T07:00:21.751Z,99.90
2019-02-06T07:02:50.606Z,99.90
2019-02-06T07:05:19.428Z,99.90
2019-02-06T07:07:48.215Z,99.90
2019-02-06T07:10:17.853Z,99.90
2019-02-06T07:12:46.650Z,99.90
2019-02-06T07:15:26.888Z,99.90
2019-02-06T07:17:55.810Z,99.90
2019-02-06T07:20:24.740Z,99.90
2019-02-06T07:22:53.681Z,99.90
2019-02-06T07:25:22.635Z,99.90
2019-02-06T07:27:51.478Z,99.70
2019-02-06T07:30:25.913Z,99.60
2019-02-06T07:32:54.882Z,99.20
2019-02-06T07:35:23.923Z,99.20
2019-02-06T07:37:52.693Z,99.00
2019-02-06T07:40:22.356Z,99.00
2019-02-06T07:42:51.152Z,99.00
2019-02-06T07:45:21.156Z,99.10
2019-02-06T07:47:50.003Z,98.90
2019-02-06T07:50:30.093Z,98.70
2019-02-06T07:52:59.340Z,98.50
2019-02-06T07:55:28.132Z,98.40
2019-02-06T07:57:56.934Z,97.60
2019-02-06T08:00:25.801Z,97.50
2019-02-06T08:02:55.975Z,97.10
2019-02-06T08:05:24.727Z,96.70
2019-02-06T08:07:53.982Z,96.40
2019-02-06T08:10:28.517Z,96.30
2019-02-06T08:12:57.686Z,96.80
2019-02-06T08:15:26.467Z,96.60
2019-02-06T08:17:55.142Z,96.10
2019-02-06T08:20:25.023Z,94.30
2019-02-06T08:22:54.315Z,94.20
2019-02-06T08:25:24.217Z,94.40
2019-02-06T08:27:53.043Z,94.10
2019-02-06T08:30:33.780Z,94.10
2019-02-06T08:33:02.746Z,94.30
2019-02-06T08:35:32.004Z,94.20
2019-02-06T08:38:00.826Z,94.40
2019-02-06T08:40:31.391Z,94.60
2019-02-06T08:43:00.279Z,94.80
2019-02-06T08:45:29.259Z,93.10
2019-02-06T08:47:58.169Z,92.00
2019-02-06T08:50:27.508Z,91.20
2019-02-06T08:52:56.481Z,90.90
2019-02-06T08:55:30.661Z,90.70
2019-02-06T08:58:00.023Z,90.20
2019-02-06T09:00:31.542Z,90.10
2019-02-06T09:03:00.918Z,89.70
2019-02-06T09:05:30.052Z,90.60
2019-02-06T09:07:58.923Z,90.10
2019-02-06T09:10:29.544Z,89.30
2019-02-06T09:12:59.123Z,88.20
2019-02-06T09:15:28.232Z,87.50
2019-02-06T09:17:57.271Z,85.80
2019-02-06T09:20:27.376Z,84.20
2019-02-06T09:22:56.672Z,83.80
2019-02-06T09:25:29.226Z,83.40
2019-02-06T09:27:58.090Z,83.00
2019-02-06T09:30:28.924Z,81.10
2019-02-06T09:32:57.953Z,79.20
2019-02-06T09:35:27.147Z,79.40
2019-02-06T09:37:55.950Z,80.40
2019-02-06T09:40:26.799Z,80.20
2019-02-06T09:42:55.641Z,78.50
2019-02-06T09:45:24.619Z,78.40
2019-02-06T09:47:53.563Z,75.30
2019-02-06T09:50:28.478Z,72.90
2019-02-06T09:52:57.371Z,72.20
2019-02-06T09:55:26.206Z,75.60
2019-02-06T09:57:54.999Z,71.60
2019-02-06T10:00:32.066Z,70.60
2019-02-06T10:03:01.324Z,66.90
2019-02-06T10:05:30.289Z,67.30
2019-02-06T10:07:59.144Z,64.90
2019-02-06T10:10:28.685Z,61.80
2019-02-06T10:12:57.714Z,65.90
2019-02-06T10:15:29.210Z,62.40
2019-02-06T10:17:58.156Z,59.30
2019-02-06T10:20:29.974Z,57.50
2019-02-06T10:22:59.096Z,53.10
2019-02-06T10:25:28.290Z,52.30
2019-02-06T10:27:57.120Z,51.60
2019-02-06T10:30:37.963Z,51.70
2019-02-06T10:33:06.889Z,51.90
2019-02-06T10:35:35.703Z,52.50
2019-02-06T10:38:04.785Z,51.30
2019-02-06T10:40:33.624Z,53.90
2019-02-06T10:43:02.414Z,52.80
2019-02-06T10:45:31.317Z,52.10
2019-02-06T10:48:00.029Z,53.60
2019-02-06T10:50:31.976Z,56.30
2019-02-06T10:53:00.947Z,57.00
2019-02-06T10:55:29.873Z,58.50
2019-02-06T10:57:58.658Z,60.00
2019-02-06T11:00:36.261Z,59.80
2019-02-06T11:03:05.929Z,57.20
2019-02-06T11:05:35.079Z,57.00
2019-02-06T11:08:04.816Z,55.90
2019-02-06T11:10:33.617Z,58.00
2019-02-06T11:13:02.630Z,56.80
2019-02-06T11:15:31.955Z,57.20
2019-02-06T11:18:00.849Z,58.50
2019-02-06T11:20:32.770Z,60.40
2019-02-06T11:23:01.604Z,59.70
2019-02-06T11:25:30.463Z,59.50
2019-02-06T11:27:59.308Z,55.10
2019-02-06T11:30:31.204Z,53.00
2019-02-06T11:33:00.123Z,52.10
2019-02-06T11:35:28.973Z,52.70
2019-02-06T11:37:57.679Z,55.00
2019-02-06T11:40:26.569Z,55.10
2019-02-06T11:42:55.616Z,56.40
2019-02-06T11:45:32.326Z,57.10
2019-02-06T11:48:01.385Z,57.30
2019-02-06T11:50:38.537Z,59.60
2019-02-06T11:53:09.001Z,59.50
2019-02-06T11:55:37.889Z,59.80
2019-02-06T11:58:07.431Z,58.60
2019-02-06T12:00:54.847Z,61.60
2019-02-06T12:03:23.779Z,52.10
2019-02-06T12:05:52.695Z,48.30
2019-02-06T12:08:21.879Z,48.60
2019-02-06T12:10:51.174Z,47.70
2019-02-06T12:13:19.963Z,45.80
2019-02-06T12:15:48.763Z,45.90
2019-02-06T12:18:17.722Z,46.40
2019-02-06T12:20:46.677Z,47.20
2019-02-06T12:23:15.528Z,46.20
2019-02-06T12:25:44.767Z,45.40
2019-02-06T12:28:13.462Z,44.00
2019-02-06T12:30:42.628Z,36.10
2019-02-06T12:33:11.521Z,32.70
2019-02-06T12:35:40.596Z,29.70
2019-02-06T12:38:09.443Z,28.00
2019-02-06T12:40:38.697Z,27.20
2019-02-06T12:43:10.591Z,26.10
2019-02-06T12:45:38.511Z,25.60
2019-02-06T12:48:07.559Z,24.90
2019-02-06T12:50:36.299Z,25.00
2019-02-06T12:53:05.588Z,23.80
2019-02-06T12:55:39.501Z,23.30
2019-02-06T12:58:09.016Z,23.20
2019-02-06T13:00:41.001Z,23.00
2019-02-06T13:03:09.841Z,23.60
2019-02-06T13:05:38.688Z,22.90
2019-02-06T13:08:07.986Z,23.40
2019-02-06T13:10:36.801Z,24.10
2019-02-06T13:13:06.152Z,23.40
2019-02-06T13:15:35.370Z,24.50
2019-02-06T13:18:04.858Z,24.60
2019-02-06T13:20:35.897Z,24.70
2019-02-06T13:23:05.884Z,26.10
2019-02-06T13:25:34.928Z,26.30
2019-02-06T13:28:04.076Z,25.20
2019-02-06T13:30:39.339Z,25.80
2019-02-06T13:33:11.622Z,26.50
2019-02-06T13:35:39.329Z,27.30
2019-02-06T13:38:08.343Z,27.70
2019-02-06T13:40:45.188Z,26.80
2019-02-06T13:43:07.663Z,26.30
2019-02-06T13:45:42.737Z,26.90
2019-02-06T13:48:11.587Z,27.70
2019-02-06T13:50:40.579Z,27.80
2019-02-06T13:53:09.408Z,28.80
2019-02-06T13:55:38.259Z,30.30
2019-02-06T13:58:19.169Z,30.30
2019-02-06T14:00:40.848Z,29.20
2019-02-06T14:03:09.761Z,28.90
2019-02-06T14:05:39.426Z,28.80
2019-02-06T14:08:10.872Z,30.30
2019-02-06T14:10:39.574Z,33.50
2019-02-06T14:13:08.521Z,38.80
2019-02-06T14:15:40.220Z,42.80
2019-02-06T14:18:10.190Z,44.80
2019-02-06T14:20:39.450Z,42.20
2019-02-06T14:23:11.448Z,40.90
2019-02-06T14:25:53.597Z,38.20
2019-02-06T14:28:44.527Z,39.60
2019-02-06T14:31:37.114Z,38.50
2019-02-06T14:34:25.131Z,39.00
2019-02-06T14:37:21.525Z,42.60
2019-02-06T14:40:08.530Z,47.60
2019-02-06T14:43:05.343Z,52.80
2019-02-06T14:45:56.729Z,56.90
2019-02-06T14:48:43.474Z,60.70
2019-02-06T14:51:18.158Z,67.70
2019-02-06T14:54:01.738Z,73.40
2019-02-06T14:56:33.473Z,77.10
2019-02-06T14:59:10.820Z,80.50
2019-02-06T15:01:45.260Z,83.20
2019-02-06T15:04:22.667Z,84.30
2019-02-06T15:07:03.382Z,86.30
2019-02-06T15:10:10.245Z,87.90
2019-02-06T15:12:48.532Z,89.80
2019-02-06T15:15:56.362Z,90.30
2019-02-06T15:18:34.541Z,91.10
2019-02-06T15:21:15.033Z,91.20
2019-02-06T15:24:04.867Z,91.20
2019-02-06T15:26:42.250Z,91.80
2019-02-06T15:29:29.427Z,92.60
2019-02-06T15:32:26.870Z,93.00
2019-02-06T15:35:16.910Z,93.10
2019-02-06T15:37:52.374Z,93.20
2019-02-06T15:40:39.374Z,93.30
2019-02-06T15:43:16.306Z,93.90
2019-02-06T15:46:16.695Z,93.90
2019-02-06T15:49:09.704Z,94.20
2019-02-06T15:51:53.412Z,94.40
2019-02-06T15:54:49.521Z,94.80
2019-02-06T15:57:33.583Z,95.10
2019-02-06T16:00:24.909Z,95.10
2019-02-06T16:03:06.589Z,95.30
2019-02-06T16:05:55.993Z,95.30
2019-02-06T16:08:34.160Z,95.90
2019-02-06T16:11:42.606Z,96.10
2019-02-06T16:14:33.328Z,96.30
2019-02-06T16:17:24.971Z,96.40
2019-02-06T16:20:05.168Z,96.50
2019-02-06T16:22:36.948Z,96.50
2019-02-06T16:25:23.848Z,96.80
2019-02-06T16:28:18.658Z,97.50
2019-02-06T16:31:02.282Z,97.70
2019-02-06T16:33:57.619Z,97.60
2019-02-06T16:36:58.541Z,97.90
2019-02-06T16:39:33.263Z,97.90
2019-02-06T16:42:23.268Z,97.90
2019-02-06T16:44:58.174Z,98.40
2019-02-06T16:47:45.837Z,98.10
2019-02-06T16:50:24.545Z,98.40
2019-02-06T16:52:56.399Z,98.40
2019-02-06T16:55:57.217Z,98.20
2019-02-06T16:58:51.877Z,98.30
2019-02-06T17:01:32.372Z,98.70
2019-02-06T17:04:13.587Z,98.80
2019-02-06T17:06:56.110Z,98.80
2019-02-06T17:09:46.158Z,99.00
2019-02-06T17:12:33.238Z,98.90
2019-02-06T17:15:33.496Z,99.00
2019-02-06T17:18:07.799Z,98.90
2019-02-06T17:20:59.207Z,99.00
2019-02-06T17:23:30.891Z,99.10
2019-02-06T17:26:08.041Z,99.00
2019-02-06T17:28:42.621Z,99.00
2019-02-06T17:31:26.565Z,98.60
2019-02-06T17:34:15.897Z,98.50
2019-02-06T17:36:53.721Z,98.30
2019-02-06T17:39:48.467Z,98.30
2019-02-06T17:42:32.245Z,98.70
2019-02-06T17:45:27.975Z,98.70
2019-02-06T17:47:59.905Z,98.50
2019-02-06T17:50:46.879Z,98.90
2019-02-06T17:53:24.609Z,99.10
2019-02-06T17:55:53.562Z,99.20
2019-02-06T17:58:22.697Z,99.10
2019-02-06T18:00:54.370Z,99.00
2019-02-06T18:03:23.223Z,98.90
2019-02-06T18:05:52.003Z,99.60
2019-02-06T18:08:20.813Z,99.70
2019-02-06T18:10:49.703Z,99.70
2019-02-06T18:13:18.449Z,99.90
2019-02-06T18:15:47.726Z,99.40
2019-02-06T18:18:16.621Z,99.90
2019-02-06T18:20:45.899Z,99.60
2019-02-06T18:23:14.678Z,99.60
2019-02-06T18:25:43.728Z,99.80
2019-02-06T18:28:12.688Z,99.10
2019-02-06T18:30:41.730Z,99.40
2019-02-06T18:33:10.917Z,99.40
2019-02-06T18:35:39.790Z,99.60
2019-02-06T18:38:09.056Z,99.80
2019-02-06T18:40:40.102Z,99.80
2019-02-06T18:43:09.102Z,99.80
2019-02-06T18:45:37.831Z,99.70
2019-02-06T18:48:10.841Z,99.70
2019-02-06T18:50:40.963Z,99.90
2019-02-06T18:53:09.857Z,99.90
2019-02-06T18:55:38.965Z,99.90
2019-02-06T18:58:08.912Z,99.90
2019-02-06T19:00:43.089Z,99.90
2019-02-06T19:03:17.684Z,99.90
2019-02-06T19:05:46.916Z,99.90
2019-02-06T19:08:15.939Z,99.90
2019-02-06T19:10:45.101Z,99.90
2019-02-06T19:13:14.188Z,99.90
2019-02-06T19:15:43.063Z,99.90
2019-02-06T19:18:11.965Z,99.90
2019-02-06T19:20:40.896Z,99.90
2019-02-06T19:23:09.740Z,99.90
2019-02-06T19:25:38.698Z,99.90
2019-02-06T19:28:07.679Z,99.90
2019-02-06T19:30:42.132Z,99.90
2019-02-06T19:33:10.905Z,99.90
2019-02-06T19:35:39.830Z,99.90
2019-02-06T19:38:08.836Z,99.90
2019-02-06T19:40:37.693Z,99.90
2019-02-06T19:43:06.690Z,99.90
2019-02-06T19:45:35.903Z,99.90
2019-02-06T19:48:15.210Z,99.90
2019-02-06T19:50:41.351Z,99.90
2019-02-06T19:53:10.250Z,99.90
2019-02-06T19:55:39.014Z,99.90
2019-02-06T19:58:09.798Z,99.90
2019-02-06T20:00:39.778Z,99.90
2019-02-06T20:03:08.931Z,99.90
2019-02-06T20:05:37.827Z,99.90
2019-02-06T20:08:07.791Z,99.90
2019-02-06T20:10:39.548Z,99.90
2019-02-06T20:13:11.385Z,99.90
2019-02-06T20:15:38.833Z,99.90
2019-02-06T20:18:08.069Z,99.90
2019-02-06T20:20:37.101Z,99.90
2019-02-06T20:23:06.084Z,99.90
2019-02-06T20:25:34.771Z,99.90
2019-02-06T20:28:03.667Z,99.90
2019-02-06T20:30:33.820Z,99.90
2019-02-06T20:33:02.719Z,99.90
2019-02-06T20:35:31.651Z,99.90
2019-02-06T20:38:00.964Z,99.90
2019-02-06T20:40:38.465Z,99.90
2019-02-06T20:43:08.324Z,99.90
2019-02-06T20:45:37.253Z,99.90
2019-02-06T20:48:06.215Z,99.90
2019-02-06T20:50:36.374Z,99.90
2019-02-06T20:53:06.243Z,99.90
2019-02-06T20:55:35.105Z,99.90
2019-02-06T20:58:04.314Z,99.90
2019-02-06T21:00:38.359Z,99.90
2019-02-06T21:03:08.946Z,99.90
2019-02-06T21:05:37.702Z,99.90
2019-02-06T21:08:06.556Z,99.90
2019-02-06T21:10:36.527Z,99.90
2019-02-06T21:13:06.205Z,99.90
2019-02-06T21:15:35.138Z,99.90
2019-02-06T21:18:03.962Z,99.90
2019-02-06T21:20:32.790Z,99.90
2019-02-06T21:23:02.365Z,99.90
2019-02-06T21:25:31.382Z,99.90
2019-02-06T21:28:00.289Z,99.90
2019-02-06T21:30:42.685Z,99.90
2019-02-06T21:33:11.639Z,99.90
2019-02-06T21:35:40.905Z,99.90
2019-02-06T21:38:09.973Z,99.90
2019-02-06T21:40:39.165Z,99.90
2019-02-06T21:43:08.383Z,99.90
2019-02-06T21:45:37.851Z,99.90
2019-02-06T21:48:07.114Z,99.90
2019-02-06T21:50:36.452Z,99.90
2019-02-06T21:53:05.593Z,99.90
2019-02-06T21:55:34.846Z,99.90
2019-02-06T21:58:04.175Z,99.90
2019-02-06T22:00:36.191Z,99.90
2019-02-06T22:03:06.544Z,99.90
2019-02-06T22:05:35.749Z,99.90
2019-02-06T22:08:05.316Z,99.90
2019-02-06T22:10:34.434Z,99.90
2019-02-06T22:13:03.884Z,99.90
2019-02-06T22:15:33.371Z,99.90
2019-02-06T22:18:02.741Z,99.90
2019-02-06T22:20:31.765Z,99.90
2019-02-06T22:23:00.625Z,99.90
2019-02-06T22:25:29.379Z,99.90
2019-02-06T22:27:58.128Z,99.90
2019-02-06T22:30:28.950Z,99.90
2019-02-06T22:32:58.209Z,99.90
2019-02-06T22:35:27.297Z,99.90
2019-02-06T22:37:56.190Z,99.90
2019-02-06T22:40:26.082Z,99.90
2019-02-06T22:42:55.119Z,99.90
2019-02-06T22:45:26.113Z,99.90
2019-02-06T22:47:55.851Z,99.90
2019-02-06T22:50:26.580Z,99.90
2019-02-06T22:52:55.427Z,99.90
2019-02-06T22:55:24.218Z,99.90
2019-02-06T22:57:53.088Z,99.90
2019-02-06T23:00:44.749Z,99.90
2019-02-06T23:03:13.617Z,99.90
2019-02-06T23:05:42.475Z,99.90
2019-02-06T23:08:11.321Z,99.90
2019-02-06T23:10:40.124Z,99.90
2019-02-06T23:13:09.426Z,99.90
2019-02-06T23:15:38.586Z,99.90
2019-02-06T23:18:07.522Z,99.90
2019-02-06T23:20:36.361Z,99.90
2019-02-06T23:23:05.399Z,99.90
2019-02-06T23:25:34.234Z,99.90
2019-02-06T23:28:03.036Z,99.90
2019-02-06T23:30:32.368Z,99.90
2019-02-06T23:33:01.219Z,99.90
2019-02-06T23:35:29.978Z,99.90
2019-02-06T23:37:58.902Z,99.90
2019-02-06T23:40:27.584Z,99.90
2019-02-06T23:42:56.319Z,99.90
2019-02-06T23:45:25.476Z,99.90
2019-02-06T23:47:54.219Z,99.90
2019-02-06T23:50:23.025Z,99.90
2019-02-06T23:52:51.978Z,99.90
2019-02-06T23:55:20.832Z,99.90
2019-02-06T23:57:49.615Z,99.90
